createdAt,value
2023-03-31T00:10:10.390Z,12.18
2023-03-31T00:20:23.193Z,15.20
2023-03-31T00:30:28.110Z,11.68
2023-03-31T00:40:32.727Z,11.15
2023-03-31T00:50:41.554Z,12.07
2023-03-31T01:00:48.352Z,13.10
2023-03-31T01:10:57.064Z,13.52
2023-03-31T01:21:47.605Z,11.07
2023-03-31T01:31:52.188Z,15.65
2023-03-31T01:42:13.894Z,14.05
2023-03-31T01:52:24.537Z,12.02
2023-03-31T02:02:38.024Z,11.73
2023-03-31T02:12:44.820Z,10.32
2023-03-31T02:22:55.115Z,14.07
2023-03-31T02:32:58.348Z,11.70
2023-03-31T02:43:06.339Z,10.60
2023-03-31T02:53:37.793Z,13.40
2023-03-31T03:03:46.343Z,12.45
2023-03-31T03:13:54.368Z,10.18
2023-03-31T03:24:00.028Z,13.30
2023-03-31T03:34:02.308Z,13.53
2023-03-31T03:44:05.146Z,13.23
2023-03-31T03:54:10.054Z,13.55
2023-03-31T04:04:17.246Z,12.60
2023-03-31T04:14:19.708Z,15.43
2023-03-31T04:24:22.500Z,14.60
2023-03-31T04:34:35.594Z,14.95
2023-03-31T04:44:40.536Z,14.57
2023-03-31T04:54:42.869Z,18.55
2023-03-31T05:04:46.953Z,14.93
2023-03-31T05:14:49.151Z,16.05
2023-03-31T05:24:53.978Z,17.50
2023-03-31T05:34:57.643Z,22.53
2023-03-31T05:45:02.769Z,15.20
2023-03-31T05:55:11.942Z,15.85
2023-03-31T06:05:14.347Z,21.33
2023-03-31T06:15:21.306Z,19.15
2023-03-31T06:25:43.849Z,14.18
2023-03-31T06:36:00.172Z,16.38
2023-03-31T06:46:04.957Z,16.17
2023-03-31T06:56:11.171Z,16.50
2023-03-31T07:06:19.653Z,14.43
2023-03-31T07:16:25.547Z,17.13
2023-03-31T07:26:33.366Z,18.20
2023-03-31T07:36:40.571Z,18.35
2023-03-31T07:46:48.192Z,21.38
2023-03-31T07:56:50.917Z,19.25
2023-03-31T08:07:04.343Z,17.92
2023-03-31T08:17:09.051Z,14.38
2023-03-31T08:27:15.770Z,12.35
2023-03-31T08:37:18.238Z,17.65
2023-03-31T08:47:23.469Z,12.18
2023-03-31T08:57:31.898Z,13.07
2023-03-31T09:07:41.895Z,14.75
2023-03-31T09:17:52.107Z,11.15
2023-03-31T09:27:57.260Z,11.38
2023-03-31T09:38:03.552Z,8.13
2023-03-31T09:48:21.241Z,8.50
2023-03-31T09:58:25.394Z,10.65
2023-03-31T10:08:45.075Z,8.27
2023-03-31T10:18:54.593Z,10.68
2023-03-31T10:28:58.902Z,9.00
2023-03-31T10:39:07.990Z,11.73
2023-03-31T10:49:23.554Z,6.78
2023-03-31T10:59:30.196Z,7.00
2023-03-31T11:09:53.123Z,4.28
2023-03-31T11:20:44.096Z,7.40
2023-03-31T11:31:11.000Z,7.70
2023-03-31T11:41:23.094Z,6.18
2023-03-31T11:51:28.947Z,6.03
2023-03-31T12:01:41.642Z,7.80
2023-03-31T12:11:53.929Z,9.93
2023-03-31T12:22:14.069Z,7.65
2023-03-31T12:32:24.490Z,7.18
2023-03-31T12:42:52.652Z,5.55
2023-03-31T12:53:23.094Z,6.90
2023-03-31T13:03:43.952Z,8.43
2023-03-31T13:14:12.203Z,7.53
2023-03-31T13:24:24.197Z,7.60
2023-03-31T13:34:42.022Z,6.43
2023-03-31T13:45:22.220Z,6.90
2023-03-31T13:55:46.962Z,4.03
2023-03-31T14:06:19.995Z,4.70
2023-03-31T14:16:22.269Z,6.53
2023-03-31T14:26:54.631Z,5.15
2023-03-31T14:37:01.363Z,3.70
2023-03-31T14:47:16.130Z,4.60
2023-03-31T14:57:30.238Z,5.97
2023-03-31T15:07:45.171Z,5.00
2023-03-31T15:17:52.371Z,9.13
2023-03-31T15:28:03.508Z,7.22
2023-03-31T15:38:06.604Z,2.72
2023-03-31T15:48:38.378Z,3.15
2023-03-31T15:58:59.656Z,2.95
2023-03-31T16:09:09.316Z,3.15
2023-03-31T16:19:21.341Z,4.40
2023-03-31T16:29:26.228Z,5.72
2023-03-31T16:39:31.298Z,2.08
2023-03-31T16:49:39.165Z,2.30
2023-03-31T16:59:53.541Z,4.80
2023-03-31T17:09:56.593Z,2.05
2023-03-31T17:20:00.143Z,2.63
2023-03-31T17:30:02.561Z,1.63
2023-03-31T17:40:07.625Z,1.55
2023-03-31T17:50:11.528Z,6.57
2023-03-31T18:00:17.580Z,6.55
2023-03-31T18:10:23.020Z,7.85
2023-03-31T18:20:28.981Z,9.10
2023-03-31T18:30:31.911Z,7.28
2023-03-31T18:40:37.376Z,7.18
2023-03-31T18:50:40.191Z,7.35
2023-03-31T19:00:47.322Z,7.70
2023-03-31T19:11:15.773Z,7.25
2023-03-31T19:21:21.740Z,5.50
2023-03-31T19:31:27.053Z,5.82
2023-03-31T19:41:29.461Z,8.15
2023-03-31T19:51:32.640Z,9.27
2023-03-31T20:01:37.885Z,8.33
2023-03-31T20:11:43.770Z,9.75
2023-03-31T20:21:58.235Z,11.63
2023-03-31T20:32:06.138Z,15.15
2023-03-31T20:42:13.176Z,12.45
2023-03-31T20:52:28.370Z,13.30
2023-03-31T21:02:34.526Z,11.85
2023-03-31T21:12:38.293Z,12.23
2023-03-31T21:22:42.955Z,12.68
2023-03-31T21:32:54.136Z,10.23
2023-03-31T21:42:59.073Z,14.13
2023-03-31T21:53:03.398Z,13.13
2023-03-31T22:03:25.695Z,15.33
2023-03-31T22:13:28.875Z,13.82
2023-03-31T22:23:34.066Z,11.35
2023-03-31T22:33:37.427Z,12.93
2023-03-31T22:43:40.112Z,15.50
2023-03-31T22:53:44.713Z,16.23
2023-03-31T23:03:50.265Z,21.50
2023-03-31T23:13:56.518Z,18.02
2023-03-31T23:24:05.886Z,19.77
2023-03-31T23:34:10.680Z,21.38
2023-03-31T23:44:15.374Z,21.10
2023-03-31T23:54:20.072Z,21.75
